Time;durP1;ratioP1;P1;durP2;ratioP2;P2;SDS_P1;SDS_P2;PMS_P1;PMS_P2;Temp;Humidity;BMP_temperature;BMP_pressure;BME280_temperature;BME280_humidity;BME280_pressure;Samples;Min_cycle;Max_cycle;Signal;HPM_P1;HPM_P2
2021/09/05 00:01:54;;;;;;;8.90;4.18;;;;;;;16.39;62.29;92969.91;2071668;69;20159;-77
2021/09/05 00:04:20;;;;;;;6.22;4.32;;;;;;;16.44;61.64;92971.56;2071513;69;20250;-76
2021/09/05 00:06:46;;;;;;;6.47;4.13;;;;;;;16.16;63.09;92961.78;2068398;69;20140;-78
2021/09/05 00:09:11;;;;;;;6.13;4.13;;;;;;;16.20;62.23;92974.06;2071648;69;20176;-77
2021/09/05 00:11:37;;;;;;;8.60;4.32;;;;;;;16.14;62.26;92961.72;2071770;69;20247;-77
2021/09/05 00:14:03;;;;;;;6.38;4.30;;;;;;;16.24;62.37;92971.41;2071656;69;20228;-77
2021/09/05 00:16:30;;;;;;;9.77;4.30;;;;;;;16.09;63.01;92974.28;2071605;69;20229;-77
2021/09/05 00:18:57;;;;;;;7.88;4.00;;;;;;;16.10;62.50;92967.22;2071607;69;20167;-77
2021/09/05 00:21:23;;;;;;;6.15;4.30;;;;;;;16.10;61.53;92970.06;2071543;69;20148;-77
2021/09/05 00:23:49;;;;;;;8.88;4.00;;;;;;;16.14;61.29;92962.44;2071551;69;20669;-76
2021/09/05 00:26:15;;;;;;;6.50;4.20;;;;;;;15.77;63.85;92965.03;2071774;69;20152;-76
2021/09/05 00:28:42;;;;;;;6.75;4.38;;;;;;;15.93;62.96;92963.63;2071700;69;20168;-77
2021/09/05 00:31:08;;;;;;;9.05;4.35;;;;;;;15.85;63.36;92956.84;2071617;69;20231;-77
2021/09/05 00:33:34;;;;;;;6.88;4.22;;;;;;;15.94;62.39;92956.59;2071601;69;20156;-77
2021/09/05 00:36:02;;;;;;;11.35;3.97;;;;;;;15.95;61.41;92958.06;2071598;69;20522;-79
2021/09/05 00:38:29;;;;;;;6.45;4.55;;;;;;;15.80;63.41;92958.78;2071409;69;20140;-77
2021/09/05 00:40:55;;;;;;;7.43;5.15;;;;;;;15.78;62.86;92957.97;2071712;69;20151;-78
2021/09/05 00:43:20;;;;;;;8.23;4.38;;;;;;;15.90;62.21;92950.00;2068324;69;20160;-78
2021/09/05 00:45:46;;;;;;;8.52;4.45;;;;;;;15.92;61.88;92952.91;2068268;69;20159;-78
2021/09/05 00:48:12;;;;;;;6.80;4.20;;;;;;;15.77;63.15;92954.41;2068154;69;20133;-78
2021/09/05 00:50:38;;;;;;;6.20;4.03;;;;;;;15.79;62.78;92959.41;2068293;69;20136;-78
2021/09/05 00:53:04;;;;;;;6.47;4.38;;;;;;;15.75;63.00;92945.78;2068132;69;20263;-77
2021/09/05 00:55:35;;;;;;;5.78;4.10;;;;;;;15.61;62.61;92953.59;2071507;69;20224;-77
2021/09/05 00:58:06;;;;;;;7.95;4.05;;;;;;;15.59;63.50;92945.00;2071641;69;20132;-77
2021/09/05 01:00:34;;;;;;;6.90;4.40;;;;;;;15.59;63.83;92959.19;2071590;69;20160;-77
2021/09/05 01:03:03;;;;;;;8.38;4.22;;;;;;;15.71;62.98;92959.78;2071389;69;20166;-77
2021/09/05 01:05:31;;;;;;;8.77;4.50;;;;;;;15.63;62.98;92962.22;2067789;69;20148;-77
2021/09/05 01:07:58;;;;;;;6.88;4.40;;;;;;;15.57;63.16;92961.94;2068013;69;20179;-77
2021/09/05 01:10:25;;;;;;;6.85;4.40;;;;;;;15.43;63.55;92964.84;2071620;69;20265;-77
2021/09/05 01:12:51;;;;;;;7.63;4.22;;;;;;;15.60;62.36;92964.22;2071444;69;20152;-78
2021/09/05 01:15:17;;;;;;;7.00;4.30;;;;;;;15.49;63.19;92973.66;2071360;69;20605;-77
2021/09/05 01:17:44;;;;;;;6.72;4.10;;;;;;;15.54;62.70;92978.13;2071511;69;20132;-77
2021/09/05 01:20:45;;;;;;;6.63;4.50;;;;;;;15.50;63.34;92970.16;2067649;69;20222;-77
2021/09/05 01:23:29;;;;;;;7.55;4.35;;;;;;;15.39;63.46;92965.38;2071313;69;20643;-77
2021/09/05 01:26:20;;;;;;;8.10;4.45;;;;;;;15.39;63.79;92964.66;2067994;69;20167;-77
2021/09/05 01:29:22;;;;;;;6.97;5.05;;;;;;;15.32;63.86;92969.31;2056908;69;20144;-77
2021/09/05 01:32:17;;;;;;;8.98;5.13;;;;;;;15.33;63.70;92978.53;2061415;69;20759;-74
2021/09/05 01:34:46;;;;;;;8.80;5.00;;;;;;;15.32;62.61;92974.97;2071650;69;20152;-76
2021/09/05 01:37:31;;;;;;;8.05;4.75;;;;;;;15.32;62.88;92985.59;2068245;69;20190;-76
2021/09/05 01:40:17;;;;;;;9.27;4.72;;;;;;;15.17;63.63;92984.19;2068737;69;20148;-76
2021/09/05 01:43:02;;;;;;;9.00;4.90;;;;;;;15.14;63.49;92982.63;2071841;69;20231;-76
2021/09/05 01:45:47;;;;;;;9.57;5.13;;;;;;;15.13;64.08;92995.31;2071958;69;20245;-75
2021/09/05 01:48:30;;;;;;;6.70;4.78;;;;;;;15.10;64.85;92985.25;2071786;69;20195;-76
2021/09/05 01:51:05;;;;;;;7.07;4.20;;;;;;;15.25;62.34;92990.97;2072014;69;20152;-76
2021/09/05 01:54:00;;;;;;;8.02;5.18;;;;;;;15.13;64.43;92995.31;2067670;69;20236;-76
2021/09/05 01:56:46;;;;;;;7.70;4.43;;;;;;;15.13;63.75;92992.50;2060870;69;20216;-75
2021/09/05 01:59:30;;;;;;;6.55;4.45;;;;;;;14.77;65.87;92991.44;2063894;69;20239;-76
2021/09/05 02:02:14;;;;;;;8.20;4.50;;;;;;;15.09;63.42;92993.03;2064377;69;20152;-77
2021/09/05 02:05:09;;;;;;;8.93;4.63;;;;;;;14.94;64.13;92990.88;2064709;69;20543;-77
2021/09/05 02:07:54;;;;;;;8.57;4.80;;;;;;;15.23;60.31;92988.03;2063747;69;20243;-77
2021/09/05 02:10:41;;;;;;;12.27;4.80;;;;;;;15.02;63.72;92991.25;2063770;69;20156;-76
2021/09/05 02:13:27;;;;;;;7.30;5.10;;;;;;;15.09;64.04;92997.97;2059187;69;20153;-77
2021/09/05 02:16:19;;;;;;;8.65;4.47;;;;;;;15.05;63.91;92995.66;2060678;69;20192;-76
2021/09/05 02:18:57;;;;;;;6.10;4.32;;;;;;;14.86;64.79;92990.47;2064751;69;20157;-77
2021/09/05 02:21:41;;;;;;;5.90;4.00;;;;;;;14.88;64.67;92999.78;2065027;69;20179;-77
2021/09/05 02:24:30;;;;;;;8.02;4.60;;;;;;;14.88;63.80;93001.88;2064662;69;20517;-77
2021/09/05 02:27:21;;;;;;;9.93;4.35;;;;;;;14.80;64.68;93007.16;2064713;69;20173;-77
2021/09/05 02:30:03;;;;;;;7.53;4.65;;;;;;;14.84;64.96;93002.41;2064606;69;20149;-77
2021/09/05 02:32:51;;;;;;;9.35;4.13;;;;;;;14.83;64.48;92998.13;2059567;69;20161;-76
2021/09/05 02:35:36;;;;;;;5.57;4.18;;;;;;;14.79;64.81;93008.53;2064666;69;20194;-77
2021/09/05 02:38:25;;;;;;;9.02;4.20;;;;;;;14.76;65.22;93006.97;2064540;69;20242;-77
2021/09/05 02:41:11;;;;;;;6.47;3.92;;;;;;;14.87;63.99;93001.16;2064644;69;20234;-77
2021/09/05 02:44:03;;;;;;;7.00;4.50;;;;;;;14.77;64.83;93006.31;2064577;69;20232;-77
2021/09/05 02:47:07;;;;;;;5.40;4.28;;;;;;;14.83;63.89;92998.13;2064844;69;20156;-77
2021/09/05 02:49:51;;;;;;;6.60;4.32;;;;;;;14.82;63.77;92995.94;2065261;69;20241;-77
2021/09/05 02:52:43;;;;;;;6.50;4.35;;;;;;;14.63;65.66;93006.34;2060885;69;20151;-77
2021/09/05 02:55:35;;;;;;;5.85;4.22;;;;;;;14.65;64.66;93005.72;2067922;69;20139;-77
2021/09/05 02:58:19;;;;;;;8.05;4.50;;;;;;;14.52;64.72;93017.78;2072051;69;20183;-77
2021/09/05 03:01:08;;;;;;;6.82;4.20;;;;;;;14.63;63.98;93011.28;2066702;69;20233;-77
2021/09/05 03:04:02;;;;;;;8.40;4.93;;;;;;;14.48;64.62;93007.00;2071900;69;20156;-77
2021/09/05 03:06:48;;;;;;;6.50;4.32;;;;;;;14.49;65.13;93016.97;2066160;69;20152;-78
2021/09/05 03:09:49;;;;;;;8.60;4.25;;;;;;;14.58;64.06;93007.50;2060890;69;20271;-77
2021/09/05 03:12:33;;;;;;;8.20;4.30;;;;;;;14.53;64.30;93014.34;2070930;69;20202;-77
2021/09/05 03:15:28;;;;;;;5.93;4.15;;;;;;;14.48;63.69;93016.22;2062250;69;20188;-77
2021/09/05 03:18:30;;;;;;;7.28;4.18;;;;;;;14.35;64.11;93016.94;2060939;69;20148;-78
2021/09/05 03:21:19;;;;;;;7.75;4.35;;;;;;;14.27;65.61;93015.78;2064695;69;20627;-77
2021/09/05 03:23:47;;;;;;;6.57;4.50;;;;;;;14.33;65.67;93016.06;2071768;69;20590;-78
2021/09/05 03:26:33;;;;;;;5.43;4.15;;;;;;;14.30;65.99;93017.34;2071868;69;20215;-77
2021/09/05 03:29:21;;;;;;;7.70;4.35;;;;;;;14.26;65.69;93014.31;2069094;69;20226;-77
2021/09/05 03:32:15;;;;;;;8.57;4.45;;;;;;;14.14;66.52;93020.06;2068513;69;20132;-77
2021/09/05 03:35:05;;;;;;;6.65;4.10;;;;;;;14.19;66.08;93007.59;2068447;69;20136;-78
2021/09/05 03:37:53;;;;;;;6.63;4.60;;;;;;;14.21;66.02;93016.19;2068830;69;20249;-77
2021/09/05 03:40:51;;;;;;;9.13;4.40;;;;;;;14.15;65.76;93007.38;2065521;69;20260;-77
2021/09/05 03:43:49;;;;;;;7.38;4.03;;;;;;;14.21;65.97;93013.38;2065531;69;20205;-77
2021/09/05 03:46:37;;;;;;;6.28;4.53;;;;;;;14.16;66.17;93014.53;2071341;69;20158;-77
2021/09/05 03:49:25;;;;;;;5.82;4.32;;;;;;;14.06;66.80;93014.69;2066187;69;20145;-77
2021/09/05 03:51:50;;;;;;;5.97;4.18;;;;;;;13.99;66.57;93010.81;2068403;69;20644;-78
2021/09/05 03:54:20;;;;;;;6.82;3.90;;;;;;;14.05;66.91;93012.50;2068458;69;20172;-78
2021/09/05 03:56:49;;;;;;;7.70;4.38;;;;;;;14.11;65.89;93012.81;2068143;69;20592;-77
2021/09/05 03:59:15;;;;;;;6.65;3.92;;;;;;;14.11;64.88;93013.56;2068463;69;20152;-78
2021/09/05 04:01:41;;;;;;;6.88;4.28;;;;;;;13.96;66.60;93023.38;2068445;69;20638;-78
2021/09/05 04:04:22;;;;;;;6.97;4.03;;;;;;;13.87;66.68;93021.47;2068459;69;20141;-78
2021/09/05 04:07:00;;;;;;;5.35;4.03;;;;;;;13.91;66.59;93018.13;2068296;69;20163;-77
2021/09/05 04:12:16;;;;;;;5.97;4.10;;;;;;;13.89;65.98;93024.44;2071743;69;20131;-78
2021/09/05 04:14:42;;;;;;;6.35;4.20;;;;;;;13.94;64.80;93025.38;2071738;69;20183;-75
2021/09/05 04:17:07;;;;;;;5.72;4.47;;;;;;;13.99;65.13;93024.97;2071802;69;20164;-75
2021/09/05 04:19:33;;;;;;;7.88;4.28;;;;;;;13.88;66.82;93034.28;2071655;69;20175;-75
2021/09/05 04:21:59;;;;;;;7.45;4.28;;;;;;;13.85;66.45;93029.13;2071875;69;20144;-75
2021/09/05 04:24:24;;;;;;;8.43;4.10;;;;;;;13.87;66.17;93032.06;2071691;69;20140;-75
2021/09/05 04:26:50;;;;;;;8.00;4.15;;;;;;;13.88;66.35;93034.28;2071903;69;20659;-75
2021/09/05 04:29:16;;;;;;;6.13;4.15;;;;;;;13.75;67.12;93037.09;2071920;69;20155;-75
2021/09/05 04:31:42;;;;;;;5.40;4.22;;;;;;;13.83;66.61;93037.50;2071662;69;20598;-75
2021/09/05 04:34:08;;;;;;;4.68;3.92;;;;;;;13.81;66.22;93037.41;2071662;69;20144;-75
2021/09/05 04:36:34;;;;;;;5.70;3.92;;;;;;;13.91;64.74;93040.78;2071510;69;20160;-75
2021/09/05 04:39:00;;;;;;;8.35;3.95;;;;;;;13.84;66.25;93033.34;2071665;69;20144;-76
2021/09/05 04:41:25;;;;;;;8.57;4.93;;;;;;;13.61;66.93;93045.53;2071658;69;20509;-76
2021/09/05 04:43:51;;;;;;;7.63;4.47;;;;;;;13.80;66.14;93047.25;2071812;69;20164;-76
2021/09/05 04:46:17;;;;;;;5.35;4.43;;;;;;;13.65;67.14;93040.06;2071687;69;20147;-76
2021/09/05 04:48:42;;;;;;;6.60;4.35;;;;;;;13.61;67.40;93054.75;2071650;69;20583;-76
2021/09/05 04:51:08;;;;;;;5.70;4.53;;;;;;;13.66;66.66;93053.63;2071652;69;20707;-76
2021/09/05 04:53:33;;;;;;;5.70;4.10;;;;;;;13.76;66.13;93058.34;2071573;69;20155;-76
2021/09/05 04:55:59;;;;;;;6.10;4.60;;;;;;;13.56;67.37;93055.13;2071576;69;20144;-76
2021/09/05 04:58:25;;;;;;;6.80;4.30;;;;;;;13.79;65.36;93062.75;2071637;69;20180;-76
2021/09/05 05:00:50;;;;;;;7.47;4.22;;;;;;;13.71;67.18;93068.72;2071585;69;20179;-76
2021/09/05 05:03:17;;;;;;;7.25;4.50;;;;;;;13.92;64.07;93070.53;2071594;69;20170;-77
2021/09/05 05:05:43;;;;;;;5.45;4.22;;;;;;;13.84;64.51;93075.78;2071606;69;20237;-76
2021/09/05 05:08:10;;;;;;;6.07;4.72;;;;;;;13.61;66.89;93079.47;2071455;69;20198;-76
2021/09/05 05:10:36;;;;;;;8.63;4.57;;;;;;;13.59;66.46;93079.34;2071581;69;20532;-77
2021/09/05 05:13:02;;;;;;;6.55;4.43;;;;;;;13.59;66.58;93079.34;2071562;69;20171;-77
2021/09/05 05:15:27;;;;;;;8.18;4.60;;;;;;;13.76;64.36;93089.47;2071636;69;20132;-77
2021/09/05 05:17:53;;;;;;;8.27;4.85;;;;;;;13.75;65.21;93088.00;2071523;69;20163;-77
2021/09/05 05:20:19;;;;;;;7.05;4.90;;;;;;;13.79;65.71;93097.47;2071785;69;20148;-77
2021/09/05 05:22:44;;;;;;;11.38;4.85;;;;;;;13.62;67.73;93095.09;2071489;69;20141;-77
2021/09/05 05:25:10;;;;;;;7.32;5.28;;;;;;;13.56;67.72;93095.50;2071632;69;20144;-78
2021/09/05 05:27:37;;;;;;;8.98;4.78;;;;;;;13.48;67.11;93084.44;2071573;69;20528;-77
2021/09/05 05:30:04;;;;;;;6.22;4.85;;;;;;;13.62;67.08;93101.47;2071548;69;20133;-77
2021/09/05 05:32:29;;;;;;;10.40;5.82;;;;;;;13.55;67.16;93096.09;2071626;69;20144;-77
2021/09/05 05:34:55;;;;;;;8.07;5.25;;;;;;;13.54;67.99;93098.19;2071471;69;20132;-77
2021/09/05 05:37:20;;;;;;;8.02;4.80;;;;;;;13.64;66.61;93100.84;2071345;69;20148;-77
2021/09/05 05:39:46;;;;;;;7.07;5.30;;;;;;;13.66;67.25;93104.53;2071556;69;20160;-77
2021/09/05 05:42:12;;;;;;;9.27;6.10;;;;;;;13.68;66.92;93107.47;2071478;69;20133;-77
2021/09/05 05:44:37;;;;;;;14.07;8.80;;;;;;;13.69;66.50;93105.38;2071601;69;20151;-76
2021/09/05 05:47:03;;;;;;;17.20;11.85;;;;;;;13.67;67.66;93105.28;2071489;69;20148;-79
2021/09/05 05:49:28;;;;;;;18.42;13.13;;;;;;;13.58;68.09;93109.72;2071471;69;20556;-76
2021/09/05 05:51:54;;;;;;;11.50;9.48;;;;;;;13.45;68.16;93108.31;2068007;69;20152;-76
2021/09/05 05:54:19;;;;;;;11.23;8.20;;;;;;;13.66;67.54;93113.03;2071480;69;20144;-76
2021/09/05 05:56:45;;;;;;;10.30;6.72;;;;;;;13.59;68.09;93116.13;2071422;69;20140;-76
2021/09/05 05:59:11;;;;;;;8.23;6.40;;;;;;;13.66;66.37;93112.28;2071490;69;20688;-77
2021/09/05 06:01:41;;;;;;;8.15;6.63;;;;;;;13.74;67.01;93118.38;2071422;69;20152;-76
2021/09/05 06:04:10;;;;;;;9.27;7.10;;;;;;;13.55;68.47;93116.63;2071423;69;20143;-76
2021/09/05 06:06:38;;;;;;;12.38;7.55;;;;;;;13.26;69.69;93116.38;2071341;69;20714;-77
2021/09/05 06:09:04;;;;;;;11.57;7.43;;;;;;;13.66;67.96;93115.13;2071411;69;20528;-77
2021/09/05 06:11:29;;;;;;;14.13;8.75;;;;;;;13.86;65.32;93109.84;2071414;69;20140;-76
2021/09/05 06:13:55;;;;;;;13.93;8.48;;;;;;;13.77;67.61;93117.16;2071657;69;20148;-76
2021/09/05 06:16:20;;;;;;;11.15;8.10;;;;;;;13.74;67.55;93115.56;2071369;69;20136;-77
2021/09/05 06:18:46;;;;;;;12.98;7.07;;;;;;;13.76;67.58;93115.69;2071427;69;20585;-76
2021/09/05 06:21:12;;;;;;;8.88;6.78;;;;;;;13.82;65.88;93113.19;2071861;69;20136;-76
2021/09/05 06:23:38;;;;;;;11.02;6.68;;;;;;;13.73;67.29;93114.81;2071864;69;20136;-76
2021/09/05 06:26:03;;;;;;;11.52;6.63;;;;;;;13.91;65.16;93111.53;2071966;69;20148;-75
2021/09/05 06:28:30;;;;;;;10.38;5.65;;;;;;;14.11;63.76;93115.50;2072053;69;20205;-77
2021/09/05 06:30:56;;;;;;;7.78;5.72;;;;;;;13.92;67.43;93110.16;2072045;69;20188;-77
2021/09/05 06:33:22;;;;;;;7.18;5.15;;;;;;;13.68;64.85;93109.56;2071908;69;20231;-77
2021/09/05 06:35:48;;;;;;;8.50;5.50;;;;;;;13.80;67.93;93107.41;2071883;69;20139;-77
2021/09/05 06:38:14;;;;;;;8.95;5.53;;;;;;;13.99;65.15;93109.88;2071902;69;20504;-73
2021/09/05 06:40:39;;;;;;;9.05;5.95;;;;;;;14.00;66.55;93113.44;2071891;69;20159;-77
2021/09/05 06:43:05;;;;;;;9.10;5.40;;;;;;;13.98;66.94;93105.59;2065729;69;20136;-76
2021/09/05 06:45:31;;;;;;;8.23;4.90;;;;;;;14.03;64.63;93108.66;2071932;69;20504;-77
2021/09/05 06:47:57;;;;;;;10.40;5.88;;;;;;;13.91;66.69;93115.09;2071910;69;20216;-80
2021/09/05 06:50:24;;;;;;;9.73;5.50;;;;;;;14.43;67.35;93116.50;2065765;69;20156;-78
2021/09/05 06:52:49;;;;;;;8.77;5.55;;;;;;;14.91;64.90;93116.84;2071759;69;20144;-78
2021/09/05 06:55:15;;;;;;;10.10;4.97;;;;;;;15.11;65.53;93119.97;2071814;69;20145;-77
2021/09/05 06:57:41;;;;;;;11.18;5.43;;;;;;;15.60;63.53;93119.56;2071843;69;20624;-78
2021/09/05 07:00:07;;;;;;;7.78;4.30;;;;;;;15.85;63.76;93122.25;2068680;69;20148;-79
2021/09/05 07:02:33;;;;;;;9.52;4.03;;;;;;;16.05;61.77;93116.81;2071910;69;20501;-79
2021/09/05 07:04:58;;;;;;;5.28;4.05;;;;;;;16.61;64.11;93111.53;2068609;69;20247;-79
2021/09/05 07:07:24;;;;;;;5.45;3.97;;;;;;;16.89;61.83;93109.97;2071762;69;20164;-77
2021/09/05 07:09:49;;;;;;;8.32;4.13;;;;;;;17.19;58.39;93112.69;2072017;69;20279;-80
2021/09/05 07:12:15;;;;;;;5.20;3.92;;;;;;;17.76;55.96;93110.09;2071836;69;20214;-80
2021/09/05 07:14:41;;;;;;;8.23;3.85;;;;;;;17.84;55.68;93112.56;2071854;69;20184;-81
2021/09/05 07:17:06;;;;;;;6.55;4.05;;;;;;;17.93;56.71;93107.94;2071937;69;20580;-80
2021/09/05 07:19:32;;;;;;;5.25;3.92;;;;;;;18.16;55.78;93101.72;2071804;69;20159;-80
2021/09/05 07:21:57;;;;;;;7.97;4.20;;;;;;;17.57;56.26;93105.03;2071843;69;20151;-80
2021/09/05 07:24:23;;;;;;;5.57;4.35;;;;;;;18.49;55.11;93108.66;2071950;69;20140;-81
2021/09/05 07:26:48;;;;;;;6.68;3.90;;;;;;;18.27;56.08;93114.97;2071876;69;20608;-81
2021/09/05 07:29:17;;;;;;;7.13;4.68;;;;;;;18.87;53.14;93114.38;2071935;69;20300;-80
2021/09/05 07:31:42;;;;;;;7.55;4.22;;;;;;;19.14;53.67;93113.19;2071946;69;20233;-79
2021/09/05 07:34:08;;;;;;;7.85;4.82;;;;;;;19.90;52.40;93113.69;2071792;69;20148;-80
2021/09/05 07:36:34;;;;;;;7.25;4.65;;;;;;;19.98;51.56;93114.69;2071793;69;20141;-79
2021/09/05 07:38:59;;;;;;;5.85;4.22;;;;;;;20.92;49.84;93114.69;2071826;69;20210;-79
2021/09/05 07:41:25;;;;;;;5.97;4.00;;;;;;;19.43;52.25;93112.81;2071813;69;20140;-79
2021/09/05 07:43:50;;;;;;;5.97;4.10;;;;;;;20.05;51.65;93118.44;2071836;69;20184;-79
2021/09/05 07:46:16;;;;;;;6.70;4.32;;;;;;;20.33;51.20;93120.75;2071784;69;20558;-80
2021/09/05 07:48:42;;;;;;;5.40;3.83;;;;;;;20.69;50.66;93121.16;2071855;69;20232;-79
2021/09/05 07:51:07;;;;;;;5.00;3.67;;;;;;;21.45;48.75;93118.34;2071751;69;20231;-80
2021/09/05 07:53:33;;;;;;;3.97;3.35;;;;;;;21.24;48.51;93120.59;2071847;69;20144;-79
2021/09/05 07:55:58;;;;;;;6.05;3.50;;;;;;;21.68;47.27;93120.38;2071717;69;20191;-79
2021/09/05 07:58:27;;;;;;;3.53;3.03;;;;;;;21.36;47.29;93105.22;2071812;69;20140;-80
2021/09/05 08:00:52;;;;;;;4.40;3.65;;;;;;;21.47;47.04;93113.38;2071738;69;20140;-80
2021/09/05 08:03:18;;;;;;;4.32;3.50;;;;;;;22.08;47.52;93119.94;2071853;69;20136;-80
2021/09/05 08:05:44;;;;;;;6.28;3.95;;;;;;;21.52;45.94;93117.81;2068440;69;20144;-80
2021/09/05 08:08:09;;;;;;;7.00;3.80;;;;;;;22.07;45.92;93122.09;2071663;69;20179;-80
2021/09/05 08:10:35;;;;;;;5.13;3.30;;;;;;;22.17;46.67;93112.31;2071820;69;20144;-80
2021/09/05 08:13:00;;;;;;;5.68;4.40;;;;;;;22.12;45.47;93120.06;2071814;69;20140;-80
2021/09/05 08:15:26;;;;;;;4.90;3.90;;;;;;;22.24;45.98;93117.50;2070930;69;20152;-80
2021/09/05 08:17:52;;;;;;;6.35;4.18;;;;;;;22.49;44.51;93123.81;2074763;69;20164;-80
2021/09/05 08:20:17;;;;;;;7.03;4.30;;;;;;;22.75;44.85;93118.69;2074189;69;20145;-80
2021/09/05 08:22:46;;;;;;;5.43;3.85;;;;;;;24.37;42.62;93118.94;2076251;69;20219;-79
2021/09/05 08:25:11;;;;;;;5.22;3.10;;;;;;;24.03;43.73;93128.41;2075986;69;20282;-80
2021/09/05 08:27:37;;;;;;;4.15;3.63;;;;;;;24.18;42.90;93121.47;2073704;69;20266;-81
2021/09/05 08:30:03;;;;;;;3.70;2.90;;;;;;;24.00;42.32;93119.00;2073271;69;20185;-80
2021/09/05 08:32:29;;;;;;;5.95;3.20;;;;;;;23.50;41.38;93121.66;2072121;69;20163;-81
2021/09/05 08:34:55;;;;;;;5.25;2.95;;;;;;;23.73;42.10;93120.72;2071724;69;20596;-79
2021/09/05 08:37:21;;;;;;;3.92;3.42;;;;;;;23.22;41.29;93131.16;2068228;69;20191;-79
2021/09/05 08:39:46;;;;;;;3.88;3.10;;;;;;;24.24;42.46;93118.00;2071882;69;20188;-78
2021/09/05 08:42:12;;;;;;;4.95;2.97;;;;;;;24.95;41.74;93124.09;2071661;69;20229;-80
2021/09/05 08:44:38;;;;;;;3.78;3.20;;;;;;;25.38;40.92;93122.53;2071739;69;20144;-78
2021/09/05 08:47:04;;;;;;;3.40;3.10;;;;;;;25.26;39.04;93113.75;2071769;69;20240;-78
2021/09/05 08:49:33;;;;;;;3.58;2.88;;;;;;;26.56;37.15;93123.03;2071832;69;20626;-79
2021/09/05 08:51:59;;;;;;;3.83;2.95;;;;;;;28.87;32.78;93116.59;2071539;69;20159;-77
2021/09/05 08:54:25;;;;;;;3.35;2.80;;;;;;;28.05;35.02;93118.00;2068266;69;20136;-80
2021/09/05 08:56:52;;;;;;;4.53;2.83;;;;;;;26.29;35.60;93116.28;2068308;69;20148;-79
2021/09/05 08:59:19;;;;;;;3.42;3.13;;;;;;;27.17;35.89;93114.03;2071646;69;20160;-77
2021/09/05 09:01:56;;;;;;;3.75;2.90;;;;;;;25.49;36.65;93111.84;2071655;69;20140;-77
2021/09/05 09:04:22;;;;;;;5.22;2.90;;;;;;;26.76;36.35;93114.53;2068354;69;20183;-79
2021/09/05 09:06:48;;;;;;;3.13;2.83;;;;;;;26.06;35.42;93110.31;2068186;69;20571;-78
2021/09/05 09:09:14;;;;;;;5.45;2.72;;;;;;;26.28;37.67;93111.94;2071691;69;20194;-80
2021/09/05 09:11:58;;;;;;;6.30;2.80;;;;;;;25.98;36.50;93104.47;2071704;69;20144;-79
2021/09/05 09:14:45;;;;;;;3.35;2.70;;;;;;;26.58;35.07;93102.84;2068415;69;20148;-80
2021/09/05 09:17:11;;;;;;;3.22;2.78;;;;;;;26.43;37.04;93104.13;2071644;69;20149;-82
2021/09/05 09:19:42;;;;;;;3.63;2.70;;;;;;;26.44;35.78;93096.97;2071625;69;20136;-80
2021/09/05 09:22:18;;;;;;;6.68;3.00;;;;;;;26.97;34.66;93098.03;2068228;69;20209;-79
2021/09/05 09:24:44;;;;;;;4.45;2.72;;;;;;;26.55;35.82;93096.31;2071795;69;20148;-81
2021/09/05 09:27:11;;;;;;;3.40;2.72;;;;;;;26.80;36.09;93100.13;2071622;69;20137;-80
2021/09/05 09:29:37;;;;;;;3.55;3.00;;;;;;;27.03;35.97;93097.34;2065472;69;20223;-80
2021/09/05 09:32:17;;;;;;;3.08;2.75;;;;;;;27.72;35.65;93096.94;2071654;69;20221;-82
2021/09/05 09:34:48;;;;;;;3.75;2.60;;;;;;;27.75;33.25;93098.41;2068268;69;20473;-82
2021/09/05 09:37:19;;;;;;;2.97;2.70;;;;;;;27.83;34.77;93096.25;2071461;69;20159;-80
2021/09/05 09:39:56;;;;;;;2.80;2.50;;;;;;;27.93;33.91;93089.06;2070148;69;20144;-78
2021/09/05 09:42:36;;;;;;;4.05;2.50;;;;;;;28.25;33.44;93082.56;2068260;69;20566;-80
2021/09/05 09:45:10;;;;;;;3.00;2.70;;;;;;;26.99;35.36;93082.88;2071347;69;20200;-83
2021/09/05 09:47:43;;;;;;;3.55;2.38;;;;;;;27.58;33.27;93086.78;2072099;69;20152;-79
2021/09/05 09:50:11;;;;;;;4.15;2.50;;;;;;;27.69;34.41;93084.63;2067530;69;20611;-81
2021/09/05 09:52:36;;;;;;;2.53;2.33;;;;;;;28.45;33.44;93076.06;2070742;69;20153;-79
2021/09/05 09:55:03;;;;;;;3.42;2.80;;;;;;;28.05;32.74;93080.41;2071581;69;20273;-81
2021/09/05 09:57:29;;;;;;;7.82;2.78;;;;;;;27.72;34.42;93065.88;2071936;69;20148;-81
2021/09/05 09:59:54;;;;;;;5.60;2.85;;;;;;;28.62;33.40;93066.66;2068581;69;20136;-79
2021/09/05 10:02:23;;;;;;;3.20;2.85;;;;;;;28.46;33.07;93058.00;2072183;69;20148;-78
2021/09/05 10:04:51;;;;;;;4.18;2.90;;;;;;;28.31;33.56;93060.13;2071862;69;20144;-81
2021/09/05 10:07:20;;;;;;;3.25;2.70;;;;;;;28.08;33.99;93068.09;2071817;69;20182;-81
2021/09/05 10:09:50;;;;;;;3.33;2.70;;;;;;;29.76;32.78;93053.28;2072055;69;20136;-83
2021/09/05 10:12:17;;;;;;;3.65;2.75;;;;;;;29.88;32.37;93059.03;2072036;69;20136;-81
2021/09/05 10:14:50;;;;;;;2.92;2.53;;;;;;;31.06;30.16;93048.63;2072344;69;20224;-81
2021/09/05 10:17:17;;;;;;;2.75;2.55;;;;;;;30.26;31.34;93052.25;2072233;69;20172;-89
2021/09/05 10:19:43;;;;;;;3.05;2.70;;;;;;;29.53;32.34;93047.56;2071522;69;20164;-80
2021/09/05 10:22:09;;;;;;;4.13;3.10;;;;;;;28.09;32.85;93045.69;2068741;69;20137;-85
2021/09/05 10:24:52;;;;;;;3.67;2.55;;;;;;;29.34;32.82;93041.13;2068946;69;20172;-82
2021/09/05 10:27:29;;;;;;;3.53;2.80;;;;;;;29.57;31.10;93035.97;2072102;69;20156;-79
2021/09/05 10:30:10;;;;;;;2.88;2.50;;;;;;;31.16;30.38;93034.00;2071850;69;20144;-84
2021/09/05 10:32:45;;;;;;;3.90;2.50;;;;;;;31.59;28.55;93033.47;2068862;69;20141;-80
2021/09/05 10:35:26;;;;;;;2.65;2.30;;;;;;;30.75;28.83;93028.63;2072110;69;20512;-80
2021/09/05 10:38:18;;;;;;;2.50;2.30;;;;;;;32.00;28.52;93030.03;2071994;69;20244;-82
2021/09/05 10:40:58;;;;;;;2.83;2.05;;;;;;;31.71;29.09;93032.63;2072169;69;20201;-84
2021/09/05 10:43:50;;;;;;;3.00;2.13;;;;;;;32.82;26.99;93030.16;2071983;69;20159;-84
2021/09/05 10:46:20;;;;;;;3.10;2.42;;;;;;;33.05;26.01;93024.66;2072393;69;20152;-76
2021/09/05 10:48:48;;;;;;;3.15;1.90;;;;;;;33.28;25.29;93024.25;2072513;69;20279;-82
2021/09/05 10:51:17;;;;;;;2.78;2.45;;;;;;;33.83;25.59;93028.97;2068892;69;20140;-81
2021/09/05 10:54:05;;;;;;;2.92;2.30;;;;;;;35.66;23.78;93022.97;2072128;69;20184;-83
2021/09/05 10:56:34;;;;;;;3.35;1.95;;;;;;;34.64;23.62;93014.69;2072356;69;20132;-85
2021/09/05 10:59:08;;;;;;;2.05;1.85;;;;;;;35.71;22.49;93024.28;2073389;69;20144;-86
2021/09/05 11:01:37;;;;;;;2.33;2.13;;;;;;;37.93;20.22;93036.75;2072927;69;20614;-88
2021/09/05 11:06:39;;;;;;;3.35;1.80;;;;;;;40.13;18.03;93034.19;2072100;69;20199;-82
2021/09/05 11:09:34;;;;;;;4.72;1.92;;;;;;;40.90;17.21;93032.03;2072179;69;20152;-80
2021/09/05 11:12:07;;;;;;;1.60;1.50;;;;;;;40.68;16.39;93027.22;2066541;69;20280;-81
2021/09/05 11:14:36;;;;;;;1.92;1.70;;;;;;;42.70;16.04;93035.13;2072102;69;20180;-83
2021/09/05 11:17:11;;;;;;;1.90;1.70;;;;;;;44.07;15.30;93033.72;2071909;69;20190;-87
2021/09/05 11:19:47;;;;;;;4.45;1.70;;;;;;;44.43;13.39;93032.25;2072438;69;20595;-80
2021/09/05 11:22:44;;;;;;;2.72;1.60;;;;;;;43.98;15.15;93032.09;2072030;69;20531;-80
2021/09/05 11:25:25;;;;;;;1.58;1.48;;;;;;;44.27;13.92;93028.78;2070751;69;20153;-89
2021/09/05 11:27:56;;;;;;;3.05;1.77;;;;;;;44.49;14.75;93029.63;2072050;69;20227;-85
2021/09/05 11:30:28;;;;;;;1.48;1.38;;;;;;;45.20;13.45;93027.25;2072275;69;20171;-78
2021/09/05 11:33:08;;;;;;;1.70;1.52;;;;;;;44.85;15.02;93025.84;2071919;69;20151;-85
2021/09/05 11:35:46;;;;;;;3.35;1.75;;;;;;;42.72;14.14;93019.53;2072111;69;20140;-79
2021/09/05 11:38:15;;;;;;;2.67;1.90;;;;;;;43.09;13.38;93012.91;2071971;69;20141;-78
2021/09/05 11:40:49;;;;;;;3.15;1.60;;;;;;;44.16;13.77;93009.47;2075988;69;20602;-74
2021/09/05 11:43:32;;;;;;;1.70;1.60;;;;;;;45.01;13.64;93009.94;2076048;69;20183;-74
2021/09/05 11:46:07;;;;;;;5.22;1.63;;;;;;;44.48;13.93;93007.41;2070381;64;20150;-83
2021/09/05 11:48:32;;;;;;;2.17;1.70;;;;;;;40.18;16.14;92989.78;2060388;69;20144;-76
2021/09/05 11:51:03;;;;;;;3.03;1.63;;;;;;;42.59;14.16;92996.50;2060635;69;20146;-81
2021/09/05 11:53:28;;;;;;;2.95;1.70;;;;;;;41.67;13.72;92991.22;2059908;69;20233;-82
2021/09/05 11:55:56;;;;;;;1.60;1.50;;;;;;;41.90;13.93;92988.50;2060542;69;20160;-76
2021/09/05 11:58:22;;;;;;;1.80;1.70;;;;;;;43.47;14.42;93003.28;2061212;69;20153;-77
2021/09/05 12:00:53;;;;;;;3.15;1.60;;;;;;;43.40;13.22;93008.16;2061370;69;20142;-78